sensor_id;sensor_type;location;lat;lon;timestamp;pressure;altitude;pressure_sealevel;temperature;humidity
24336;BME280;33098;52.400;16.880;2023-03-01T00:01:52;102279.09;;;-1.33;70.72
24336;BME280;33098;52.400;16.880;2023-03-01T00:04:19;102274.90;;;-1.39;70.65
24336;BME280;33098;52.400;16.880;2023-03-01T00:06:49;102270.73;;;-1.40;70.85
24336;BME280;33098;52.400;16.880;2023-03-01T00:09:16;102271.23;;;-1.39;70.83
24336;BME280;33098;52.400;16.880;2023-03-01T00:11:44;102272.81;;;-1.43;70.82
24336;BME280;33098;52.400;16.880;2023-03-01T00:14:12;102277.85;;;-1.50;70.76
24336;BME280;33098;52.400;16.880;2023-03-01T00:16:43;102275.23;;;-1.54;70.88
24336;BME280;33098;52.400;16.880;2023-03-01T00:19:18;102272.27;;;-1.60;70.99
24336;BME280;33098;52.400;16.880;2023-03-01T00:21:53;102264.27;;;-1.65;71.14
24336;BME280;33098;52.400;16.880;2023-03-01T00:24:23;102263.38;;;-1.65;71.18
24336;BME280;33098;52.400;16.880;2023-03-01T00:26:53;102264.77;;;-1.64;71.18
24336;BME280;33098;52.400;16.880;2023-03-01T00:29:25;102265.48;;;-1.62;71.26
24336;BME280;33098;52.400;16.880;2023-03-01T00:31:54;102261.64;;;-1.67;71.20
24336;BME280;33098;52.400;16.880;2023-03-01T00:34:24;102256.23;;;-1.72;71.18
24336;BME280;33098;52.400;16.880;2023-03-01T00:36:54;102251.53;;;-1.75;71.38
24336;BME280;33098;52.400;16.880;2023-03-01T00:39:21;102252.05;;;-1.78;71.39
24336;BME280;33098;52.400;16.880;2023-03-01T00:41:54;102250.66;;;-1.73;71.69
24336;BME280;33098;52.400;16.880;2023-03-01T00:44:24;102246.33;;;-1.67;71.70
24336;BME280;33098;52.400;16.880;2023-03-01T00:46:51;102244.92;;;-1.61;71.82
24336;BME280;33098;52.400;16.880;2023-03-01T00:49:21;102244.40;;;-1.67;71.72
24336;BME280;33098;52.400;16.880;2023-03-01T00:51:53;102239.02;;;-1.66;71.74
24336;BME280;33098;52.400;16.880;2023-03-01T00:54:24;102237.45;;;-1.56;71.90
24336;BME280;33098;52.400;16.880;2023-03-01T00:56:51;102234.66;;;-1.57;71.82
24336;BME280;33098;52.400;16.880;2023-03-01T00:59:18;102231.54;;;-1.51;71.99
24336;BME280;33098;52.400;16.880;2023-03-01T01:01:48;102227.88;;;-1.43;71.91
24336;BME280;33098;52.400;16.880;2023-03-01T01:04:20;102229.79;;;-1.43;71.61
24336;BME280;33098;52.400;16.880;2023-03-01T01:06:53;102233.62;;;-1.53;71.48
24336;BME280;33098;52.400;16.880;2023-03-01T01:09:25;102236.41;;;-1.58;71.69
24336;BME280;33098;52.400;16.880;2023-03-01T01:11:54;102225.09;;;-1.55;71.53
24336;BME280;33098;52.400;16.880;2023-03-01T01:14:21;102213.60;;;-1.55;71.70
24336;BME280;33098;52.400;16.880;2023-03-01T01:16:53;102215.67;;;-1.59;71.61
24336;BME280;33098;52.400;16.880;2023-03-01T01:19:20;102219.67;;;-1.72;71.57
24336;BME280;33098;52.400;16.880;2023-03-01T01:21:49;102222.27;;;-1.78;71.76
24336;BME280;33098;52.400;16.880;2023-03-01T01:24:16;102222.80;;;-1.81;71.83
24336;BME280;33098;52.400;16.880;2023-03-01T01:26:44;102222.98;;;-1.82;71.93
24336;BME280;33098;52.400;16.880;2023-03-01T01:29:15;102222.11;;;-1.82;71.94
24336;BME280;33098;52.400;16.880;2023-03-01T01:31:43;102222.45;;;-1.76;72.15
24336;BME280;33098;52.400;16.880;2023-03-01T01:34:17;102222.11;;;-1.74;72.18
24336;BME280;33098;52.400;16.880;2023-03-01T01:36:48;102221.94;;;-1.79;72.09
24336;BME280;33098;52.400;16.880;2023-03-01T01:39:16;102225.91;;;-1.90;72.04
24336;BME280;33098;52.400;16.880;2023-03-01T01:41:47;102222.27;;;-1.90;72.21
24336;BME280;33098;52.400;16.880;2023-03-01T01:44:27;102221.23;;;-1.83;72.43
24336;BME280;33098;52.400;16.880;2023-03-01T01:49:56;102219.15;;;-1.71;72.45
24336;BME280;33098;52.400;16.880;2023-03-01T01:52:35;102212.55;;;-1.67;72.49
24336;BME280;33098;52.400;16.880;2023-03-01T01:55:10;102209.05;;;-1.66;72.45
24336;BME280;33098;52.400;16.880;2023-03-01T01:57:42;102207.13;;;-1.76;72.41
24336;BME280;33098;52.400;16.880;2023-03-01T02:00:14;102202.44;;;-1.81;72.34
24336;BME280;33098;52.400;16.880;2023-03-01T02:02:50;102202.26;;;-1.89;72.45
24336;BME280;33098;52.400;16.880;2023-03-01T02:08:29;102205.39;;;-1.85;72.66
24336;BME280;33098;52.400;16.880;2023-03-01T02:11:11;102198.25;;;-1.82;72.54
24336;BME280;33098;52.400;16.880;2023-03-01T02:13:46;102196.69;;;-1.88;72.50
24336;BME280;33098;52.400;16.880;2023-03-01T02:16:19;102188.33;;;-1.90;72.44
24336;BME280;33098;52.400;16.880;2023-03-01T02:18:52;102177.89;;;-1.95;72.63
24336;BME280;33098;52.400;16.880;2023-03-01T02:21:43;102168.48;;;-2.01;72.50
24336;BME280;33098;52.400;16.880;2023-03-01T02:26:57;102151.95;;;-1.95;72.88
24336;BME280;33098;52.400;16.880;2023-03-01T02:29:24;102152.83;;;-1.94;72.81
24336;BME280;33098;52.400;16.880;2023-03-01T02:31:57;102156.83;;;-1.89;72.93
24336;BME280;33098;52.400;16.880;2023-03-01T02:34:31;102152.13;;;-1.82;72.95
24336;BME280;33098;52.400;16.880;2023-03-01T02:37:08;102155.44;;;-1.81;72.71
24336;BME280;33098;52.400;16.880;2023-03-01T02:39:41;102153.52;;;-1.87;72.65
24336;BME280;33098;52.400;16.880;2023-03-01T02:42:14;102149.88;;;-1.88;72.53
24336;BME280;33098;52.400;16.880;2023-03-01T02:44:44;102151.96;;;-1.89;72.60
24336;BME280;33098;52.400;16.880;2023-03-01T02:47:14;102145.50;;;-1.99;72.46
24336;BME280;33098;52.400;16.880;2023-03-01T02:49:45;102139.41;;;-2.02;72.57
24336;BME280;33098;52.400;16.880;2023-03-01T02:52:45;102135.77;;;-2.03;72.59
24336;BME280;33098;52.400;16.880;2023-03-01T02:55:17;102136.29;;;-2.01;72.67
24336;BME280;33098;52.400;16.880;2023-03-01T02:57:46;102139.95;;;-1.96;72.74
24336;BME280;33098;52.400;16.880;2023-03-01T03:00:23;102144.98;;;-1.95;72.65
24336;BME280;33098;52.400;16.880;2023-03-01T03:02:54;102153.86;;;-2.02;72.57
24336;BME280;33098;52.400;16.880;2023-03-01T03:05:28;102151.42;;;-1.95;72.87
24336;BME280;33098;52.400;16.880;2023-03-01T03:07:59;102143.95;;;-1.88;73.00
24336;BME280;33098;52.400;16.880;2023-03-01T03:10:33;102139.61;;;-1.91;72.80
24336;BME280;33098;52.400;16.880;2023-03-01T03:13:05;102143.95;;;-1.91;72.81
24336;BME280;33098;52.400;16.880;2023-03-01T03:15:34;102141.52;;;-1.89;72.77
24336;BME280;33098;52.400;16.880;2023-03-01T03:18:10;102139.09;;;-1.92;72.86
24336;BME280;33098;52.400;16.880;2023-03-01T03:20:39;102138.73;;;-1.93;72.83
24336;BME280;33098;52.400;16.880;2023-03-01T03:23:07;102132.30;;;-1.93;72.81
24336;BME280;33098;52.400;16.880;2023-03-01T03:25:34;102133.52;;;-1.93;72.95
24336;BME280;33098;52.400;16.880;2023-03-01T03:28:05;102136.30;;;-1.91;72.99
24336;BME280;33098;52.400;16.880;2023-03-01T03:30:38;102134.38;;;-1.92;72.97
24336;BME280;33098;52.400;16.880;2023-03-01T03:33:11;102129.86;;;-1.91;72.92
24336;BME280;33098;52.400;16.880;2023-03-01T03:35:45;102127.42;;;-1.84;73.04
24336;BME280;33098;52.400;16.880;2023-03-01T03:38:18;102129.69;;;-1.83;72.97
24336;BME280;33098;52.400;16.880;2023-03-01T03:43:30;102131.42;;;-1.98;72.60
24336;BME280;33098;52.400;16.880;2023-03-01T03:45:59;102133.52;;;-1.99;72.77
24336;BME280;33098;52.400;16.880;2023-03-01T03:48:29;102136.81;;;-1.93;72.95
24336;BME280;33098;52.400;16.880;2023-03-01T03:50:56;102137.52;;;-1.95;72.98
24336;BME280;33098;52.400;16.880;2023-03-01T03:53:25;102134.04;;;-1.91;72.99
24336;BME280;33098;52.400;16.880;2023-03-01T03:55:53;102130.89;;;-1.97;72.94
24336;BME280;33098;52.400;16.880;2023-03-01T03:58:24;102134.02;;;-2.10;72.85
24336;BME280;33098;52.400;16.880;2023-03-01T04:00:56;102130.35;;;-2.21;72.92
24336;BME280;33098;52.400;16.880;2023-03-01T04:03:26;102131.55;;;-2.22;73.12
24336;BME280;33098;52.400;16.880;2023-03-01T04:05:58;102132.97;;;-2.19;73.31
24336;BME280;33098;52.400;16.880;2023-03-01T04:08:25;102131.40;;;-2.24;73.15
24336;BME280;33098;52.400;16.880;2023-03-01T04:10:59;102128.59;;;-2.27;73.43
24336;BME280;33098;52.400;16.880;2023-03-01T04:13:27;102118.71;;;-2.13;73.78
24336;BME280;33098;52.400;16.880;2023-03-01T04:15:54;102120.96;;;-2.10;73.66
24336;BME280;33098;52.400;16.880;2023-03-01T04:18:22;102117.84;;;-2.16;73.52
24336;BME280;33098;52.400;16.880;2023-03-01T04:20:50;102115.73;;;-2.16;73.71
24336;BME280;33098;52.400;16.880;2023-03-01T04:23:22;102114.52;;;-2.16;73.75
24336;BME280;33098;52.400;16.880;2023-03-01T04:28:25;102117.30;;;-2.17;73.61
24336;BME280;33098;52.400;16.880;2023-03-01T04:30:53;102119.92;;;-2.14;73.78
24336;BME280;33098;52.400;16.880;2023-03-01T04:33:21;102118.02;;;-2.06;73.95
24336;BME280;33098;52.400;16.880;2023-03-01T04:35:56;102120.63;;;-2.04;73.86
24336;BME280;33098;52.400;16.880;2023-03-01T04:38:26;102122.36;;;-2.16;73.70
24336;BME280;33098;52.400;16.880;2023-03-01T04:40:54;102123.40;;;-2.17;73.68
24336;BME280;33098;52.400;16.880;2023-03-01T04:43:21;102129.46;;;-2.26;73.65
24336;BME280;33098;52.400;16.880;2023-03-01T04:45:50;102129.13;;;-2.28;73.69
24336;BME280;33098;52.400;16.880;2023-03-01T04:48:18;102124.94;;;-2.31;73.81
24336;BME280;33098;52.400;16.880;2023-03-01T04:50:48;102126.16;;;-2.32;73.89
24336;BME280;33098;52.400;16.880;2023-03-01T04:53:15;102123.38;;;-2.26;74.00
24336;BME280;33098;52.400;16.880;2023-03-01T04:55:42;102124.95;;;-2.25;74.05
24336;BME280;33098;52.400;16.880;2023-03-01T04:58:09;102121.30;;;-2.21;74.06
24336;BME280;33098;52.400;16.880;2023-03-01T05:00:42;102116.61;;;-2.17;74.33
24336;BME280;33098;52.400;16.880;2023-03-01T05:03:15;102118.52;;;-2.11;74.23
24336;BME280;33098;52.400;16.880;2023-03-01T05:05:48;102112.98;;;-2.02;74.39
24336;BME280;33098;52.400;16.880;2023-03-01T05:08:18;102115.76;;;-2.00;74.25
24336;BME280;33098;52.400;16.880;2023-03-01T05:10:48;102115.58;;;-2.07;73.84
24336;BME280;33098;52.400;16.880;2023-03-01T05:13:18;102111.59;;;-2.13;74.00
24336;BME280;33098;52.400;16.880;2023-03-01T05:15:56;102112.97;;;-2.09;74.13
24336;BME280;33098;52.400;16.880;2023-03-01T05:18:25;102110.02;;;-2.09;74.06
24336;BME280;33098;52.400;16.880;2023-03-01T05:20:54;102112.63;;;-2.15;74.01
24336;BME280;33098;52.400;16.880;2023-03-01T05:23:22;102112.44;;;-2.15;74.09
24336;BME280;33098;52.400;16.880;2023-03-01T05:25:50;102111.73;;;-2.10;74.13
24336;BME280;33098;52.400;16.880;2023-03-01T05:28:24;102119.05;;;-2.07;74.12
24336;BME280;33098;52.400;16.880;2023-03-01T05:30:54;102116.61;;;-2.08;74.04
24336;BME280;33098;52.400;16.880;2023-03-01T05:33:21;102119.23;;;-2.08;73.98
24336;BME280;33098;52.400;16.880;2023-03-01T05:35:54;102122.71;;;-2.10;74.05
24336;BME280;33098;52.400;16.880;2023-03-01T05:38:25;102124.09;;;-2.20;73.90
24336;BME280;33098;52.400;16.880;2023-03-01T05:40:55;102123.55;;;-2.34;73.67
24336;BME280;33098;52.400;16.880;2023-03-01T05:43:25;102127.70;;;-2.39;73.98
24336;BME280;33098;52.400;16.880;2023-03-01T05:45:52;102127.01;;;-2.44;74.14
24336;BME280;33098;52.400;16.880;2023-03-01T05:48:19;102135.00;;;-2.43;74.19
24336;BME280;33098;52.400;16.880;2023-03-01T05:50:52;102134.14;;;-2.42;74.45
24336;BME280;33098;52.400;16.880;2023-03-01T05:53:22;102139.73;;;-2.35;74.51
24336;BME280;33098;52.400;16.880;2023-03-01T05:55:51;102137.45;;;-2.37;74.61
24336;BME280;33098;52.400;16.880;2023-03-01T05:58:21;102131.89;;;-2.36;74.65
24336;BME280;33098;52.400;16.880;2023-03-01T06:00:49;102134.15;;;-2.38;74.53
24336;BME280;33098;52.400;16.880;2023-03-01T06:03:35;102126.65;;;-2.39;74.80
24336;BME280;33098;52.400;16.880;2023-03-01T06:06:02;102126.48;;;-2.39;74.73
24336;BME280;33098;52.400;16.880;2023-03-01T06:08:32;102125.45;;;-2.35;74.98
24336;BME280;33098;52.400;16.880;2023-03-01T06:10:59;102115.90;;;-2.33;75.08
24336;BME280;33098;52.400;16.880;2023-03-01T06:13:26;102116.95;;;-2.32;75.19
24336;BME280;33098;52.400;16.880;2023-03-01T06:15:54;102116.60;;;-2.24;75.35
24336;BME280;33098;52.400;16.880;2023-03-01T06:18:22;102110.19;;;-2.10;75.61
24336;BME280;33098;52.400;16.880;2023-03-01T06:20:55;102111.41;;;-2.01;75.56
24336;BME280;33098;52.400;16.880;2023-03-01T06:23:25;102111.05;;;-1.96;75.63
24336;BME280;33098;52.400;16.880;2023-03-01T06:26:06;102115.77;;;-1.93;75.65
24336;BME280;33098;52.400;16.880;2023-03-01T06:28:34;102117.15;;;-1.83;75.76
24336;BME280;33098;52.400;16.880;2023-03-01T06:31:01;102112.10;;;-1.71;75.80
24336;BME280;33098;52.400;16.880;2023-03-01T06:33:35;102103.91;;;-1.62;75.78
24336;BME280;33098;52.400;16.880;2023-03-01T06:36:03;102108.77;;;-1.51;76.07
24336;BME280;33098;52.400;16.880;2023-03-01T06:38:29;102102.29;;;-1.38;76.07
24336;BME280;33098;52.400;16.880;2023-03-01T06:41:02;102101.73;;;-1.23;76.27
24336;BME280;33098;52.400;16.880;2023-03-01T06:43:35;102099.63;;;-1.14;75.88
24336;BME280;33098;52.400;16.880;2023-03-01T06:46:05;102098.73;;;-1.06;75.86
24336;BME280;33098;52.400;16.880;2023-03-01T06:48:34;102100.93;;;-0.94;75.87
24336;BME280;33098;52.400;16.880;2023-03-01T06:51:01;102097.60;;;-0.88;75.70
24336;BME280;33098;52.400;16.880;2023-03-01T06:53:30;102095.84;;;-0.84;75.65
24336;BME280;33098;52.400;16.880;2023-03-01T06:56:00;102094.77;;;-0.79;75.64
24336;BME280;33098;52.400;16.880;2023-03-01T06:58:27;102094.73;;;-0.71;75.52
24336;BME280;33098;52.400;16.880;2023-03-01T07:00:57;102097.66;;;-0.67;75.41
24336;BME280;33098;52.400;16.880;2023-03-01T07:03:24;102093.98;;;-0.62;75.34
24336;BME280;33098;52.400;16.880;2023-03-01T07:05:54;102095.88;;;-0.60;75.27
24336;BME280;33098;52.400;16.880;2023-03-01T07:08:23;102100.09;;;-0.62;74.99
24336;BME280;33098;52.400;16.880;2023-03-01T07:10:57;102104.09;;;-0.61;75.06
24336;BME280;33098;52.400;16.880;2023-03-01T07:13:27;102106.15;;;-0.56;75.15
24336;BME280;33098;52.400;16.880;2023-03-01T07:15:56;102105.60;;;-0.51;75.15
24336;BME280;33098;52.400;16.880;2023-03-01T07:18:24;102102.77;;;-0.45;75.14
24336;BME280;33098;52.400;16.880;2023-03-01T07:20:50;102106.05;;;-0.38;75.13
24336;BME280;33098;52.400;16.880;2023-03-01T07:23:17;102110.39;;;-0.32;75.03
24336;BME280;33098;52.400;16.880;2023-03-01T07:25:53;102111.91;;;-0.26;75.16
24336;BME280;33098;52.400;16.880;2023-03-01T07:28:24;102113.23;;;-0.17;74.97
24336;BME280;33098;52.400;16.880;2023-03-01T07:30:52;102112.80;;;-0.06;75.09
24336;BME280;33098;52.400;16.880;2023-03-01T07:33:21;102112.05;;;0.02;74.82
24336;BME280;33098;52.400;16.880;2023-03-01T07:35:55;102116.86;;;0.12;74.65
24336;BME280;33098;52.400;16.880;2023-03-01T07:38:32;102116.29;;;0.16;74.53
24336;BME280;33098;52.400;16.880;2023-03-01T07:41:00;102110.77;;;0.28;74.57
24336;BME280;33098;52.400;16.880;2023-03-01T07:43:36;102108.45;;;0.35;74.39
24336;BME280;33098;52.400;16.880;2023-03-01T07:46:04;102113.82;;;0.40;74.27
24336;BME280;33098;52.400;16.880;2023-03-01T07:48:34;102116.00;;;0.50;74.16
24336;BME280;33098;52.400;16.880;2023-03-01T07:51:05;102111.01;;;0.59;74.05
24336;BME280;33098;52.400;16.880;2023-03-01T07:53:38;102118.95;;;0.68;73.95
24336;BME280;33098;52.400;16.880;2023-03-01T07:56:11;102120.98;;;0.74;73.69
24336;BME280;33098;52.400;16.880;2023-03-01T07:58:41;102121.44;;;0.81;73.77
24336;BME280;33098;52.400;16.880;2023-03-01T08:01:14;102120.48;;;0.88;73.73
24336;BME280;33098;52.400;16.880;2023-03-01T08:03:42;102121.27;;;0.95;73.47
24336;BME280;33098;52.400;16.880;2023-03-01T08:06:13;102119.56;;;1.07;73.60
24336;BME280;33098;52.400;16.880;2023-03-01T08:08:41;102116.80;;;1.20;73.46
24336;BME280;33098;52.400;16.880;2023-03-01T08:11:14;102113.70;;;1.28;73.45
24336;BME280;33098;52.400;16.880;2023-03-01T08:13:48;102115.70;;;1.36;73.23
24336;BME280;33098;52.400;16.880;2023-03-01T08:16:21;102111.23;;;1.42;73.10
24336;BME280;33098;52.400;16.880;2023-03-01T08:18:52;102113.05;;;1.50;73.10
24336;BME280;33098;52.400;16.880;2023-03-01T08:21:22;102118.05;;;1.57;72.89
24336;BME280;33098;52.400;16.880;2023-03-01T08:23:58;102107.23;;;1.66;72.86
24336;BME280;33098;52.400;16.880;2023-03-01T08:26:25;102103.95;;;1.75;72.60
24336;BME280;33098;52.400;16.880;2023-03-01T08:28:55;102097.02;;;1.83;72.74
24336;BME280;33098;52.400;16.880;2023-03-01T08:31:28;102102.59;;;1.96;72.77
24336;BME280;33098;52.400;16.880;2023-03-01T08:34:03;102102.30;;;2.13;72.63
24336;BME280;33098;52.400;16.880;2023-03-01T08:36:40;102104.85;;;2.28;72.43
24336;BME280;33098;52.400;16.880;2023-03-01T08:39:10;102104.91;;;2.34;71.90
24336;BME280;33098;52.400;16.880;2023-03-01T08:41:44;102106.80;;;2.37;71.76
24336;BME280;33098;52.400;16.880;2023-03-01T08:44:12;102100.70;;;2.45;71.76
24336;BME280;33098;52.400;16.880;2023-03-01T08:46:41;102097.41;;;2.52;71.83
24336;BME280;33098;52.400;16.880;2023-03-01T08:49:15;102094.59;;;2.62;71.77
24336;BME280;33098;52.400;16.880;2023-03-01T08:51:43;102087.42;;;2.70;71.43
24336;BME280;33098;52.400;16.880;2023-03-01T08:54:13;102090.55;;;2.81;71.30
24336;BME280;33098;52.400;16.880;2023-03-01T08:56:42;102085.05;;;2.93;71.32
24336;BME280;33098;52.400;16.880;2023-03-01T08:59:13;102083.58;;;3.05;71.11
24336;BME280;33098;52.400;16.880;2023-03-01T09:01:42;102081.43;;;3.16;70.70
24336;BME280;33098;52.400;16.880;2023-03-01T09:04:11;102077.35;;;3.26;70.35
24336;BME280;33098;52.400;16.880;2023-03-01T09:06:47;102079.35;;;3.38;70.31
24336;BME280;33098;52.400;16.880;2023-03-01T09:09:17;102077.67;;;3.51;70.25
24336;BME280;33098;52.400;16.880;2023-03-01T09:11:45;102077.80;;;3.60;69.73
24336;BME280;33098;52.400;16.880;2023-03-01T09:14:13;102075.70;;;3.68;69.48
24336;BME280;33098;52.400;16.880;2023-03-01T09:16:44;102073.62;;;3.74;68.53
24336;BME280;33098;52.400;16.880;2023-03-01T09:19:20;102067.78;;;3.76;67.74
24336;BME280;33098;52.400;16.880;2023-03-01T09:21:49;102061.66;;;3.83;67.94
24336;BME280;33098;52.400;16.880;2023-03-01T09:24:27;102059.45;;;3.86;67.64
24336;BME280;33098;52.400;16.880;2023-03-01T09:26:55;102061.05;;;3.92;67.84
24336;BME280;33098;52.400;16.880;2023-03-01T09:29:24;102065.20;;;3.95;66.89
24336;BME280;33098;52.400;16.880;2023-03-01T09:31:54;102068.52;;;3.96;65.94
24336;BME280;33098;52.400;16.880;2023-03-01T09:34:23;102069.25;;;4.02;66.50
24336;BME280;33098;52.400;16.880;2023-03-01T09:36:56;102072.89;;;4.11;66.67
24336;BME280;33098;52.400;16.880;2023-03-01T09:39:23;102073.27;;;4.23;66.82
24336;BME280;33098;52.400;16.880;2023-03-01T09:42:02;102076.83;;;4.29;66.11
24336;BME280;33098;52.400;16.880;2023-03-01T09:47:57;102071.20;;;4.49;66.22
24336;BME280;33098;52.400;16.880;2023-03-01T09:50:33;102063.20;;;4.52;65.57
24336;BME280;33098;52.400;16.880;2023-03-01T09:53:15;102064.91;;;4.54;65.04
24336;BME280;33098;52.400;16.880;2023-03-01T09:59:00;102067.11;;;4.63;63.71
24336;BME280;33098;52.400;16.880;2023-03-01T10:01:43;102070.96;;;4.64;63.37
24336;BME280;33098;52.400;16.880;2023-03-01T10:04:41;102066.48;;;4.67;63.72
24336;BME280;33098;52.400;16.880;2023-03-01T10:09:54;102064.73;;;4.92;64.01
24336;BME280;33098;52.400;16.880;2023-03-01T10:12:27;102063.23;;;4.89;63.34
24336;BME280;33098;52.400;16.880;2023-03-01T10:15:09;102065.20;;;4.94;63.63
24336;BME280;33098;52.400;16.880;2023-03-01T10:17:50;102061.79;;;5.02;63.41
24336;BME280;33098;52.400;16.880;2023-03-01T10:20:43;102065.44;;;5.16;63.51
24336;BME280;33098;52.400;16.880;2023-03-01T10:23:12;102060.66;;;5.33;63.91
24336;BME280;33098;52.400;16.880;2023-03-01T10:29:09;102051.84;;;5.63;63.96
24336;BME280;33098;52.400;16.880;2023-03-01T10:31:43;102052.38;;;5.68;62.98
24336;BME280;33098;52.400;16.880;2023-03-01T10:34:36;102049.48;;;5.65;62.53
24336;BME280;33098;52.400;16.880;2023-03-01T10:37:12;102050.81;;;5.68;61.58
24336;BME280;33098;52.400;16.880;2023-03-01T10:42:36;102044.79;;;5.96;61.90
24336;BME280;33098;52.400;16.880;2023-03-01T10:50:42;102028.79;;;6.26;60.87
24336;BME280;33098;52.400;16.880;2023-03-01T10:56:01;102025.96;;;6.46;61.85
24336;BME280;33098;52.400;16.880;2023-03-01T10:58:36;102026.40;;;6.59;61.87
24336;BME280;33098;52.400;16.880;2023-03-01T11:03:41;102017.35;;;6.79;61.79
24336;BME280;33098;52.400;16.880;2023-03-01T11:06:26;102017.23;;;6.92;61.75
24336;BME280;33098;52.400;16.880;2023-03-01T11:09:17;102017.45;;;7.05;61.78
24336;BME280;33098;52.400;16.880;2023-03-01T11:11:55;102013.27;;;7.17;61.64
24336;BME280;33098;52.400;16.880;2023-03-01T11:14:29;102008.54;;;7.29;61.26
24336;BME280;33098;52.400;16.880;2023-03-01T11:17:01;102010.27;;;7.44;61.27
24336;BME280;33098;52.400;16.880;2023-03-01T11:19:29;102005.44;;;7.54;61.05
24336;BME280;33098;52.400;16.880;2023-03-01T11:22:03;102003.74;;;7.65;61.15
24336;BME280;33098;52.400;16.880;2023-03-01T11:24:51;101997.36;;;7.74;60.06
24336;BME280;33098;52.400;16.880;2023-03-01T11:27:36;101992.86;;;7.81;60.22
24336;BME280;33098;52.400;16.880;2023-03-01T11:33:24;101990.53;;;8.06;60.41
24336;BME280;33098;52.400;16.880;2023-03-01T11:38:53;101992.32;;;8.30;59.59
24336;BME280;33098;52.400;16.880;2023-03-01T11:41:30;101988.68;;;8.32;59.49
24336;BME280;33098;52.400;16.880;2023-03-01T11:44:12;101982.03;;;8.47;59.86
24336;BME280;33098;52.400;16.880;2023-03-01T11:49:54;101976.50;;;8.72;59.36
24336;BME280;33098;52.400;16.880;2023-03-01T11:52:48;101972.96;;;8.72;57.85
24336;BME280;33098;52.400;16.880;2023-03-01T12:06:57;101964.36;;;9.37;58.84
24336;BME280;33098;52.400;16.880;2023-03-01T12:12:30;101963.15;;;9.29;57.20
24336;BME280;33098;52.400;16.880;2023-03-01T12:15:27;101955.73;;;9.32;57.27
24336;BME280;33098;52.400;16.880;2023-03-01T12:18:25;101956.42;;;9.51;57.83
24336;BME280;33098;52.400;16.880;2023-03-01T12:24:54;101942.54;;;9.80;57.08
24336;BME280;33098;52.400;16.880;2023-03-01T12:27:24;101935.10;;;9.97;56.81
24336;BME280;33098;52.400;16.880;2023-03-01T12:33:06;101922.40;;;10.16;56.52
24336;BME280;33098;52.400;16.880;2023-03-01T12:38:50;101918.59;;;10.11;54.35
24336;BME280;33098;52.400;16.880;2023-03-01T12:41:29;101914.15;;;10.11;55.41
24336;BME280;33098;52.400;16.880;2023-03-01T12:49:29;101913.81;;;10.80;56.18
24336;BME280;33098;52.400;16.880;2023-03-01T12:52:11;101913.23;;;10.97;55.73
24336;BME280;33098;52.400;16.880;2023-03-01T12:54:41;101906.05;;;11.22;56.23
24336;BME280;33098;52.400;16.880;2023-03-01T12:57:21;101913.79;;;11.55;56.37
24336;BME280;33098;52.400;16.880;2023-03-01T13:05:40;101909.23;;;12.19;55.35
24336;BME280;33098;52.400;16.880;2023-03-01T13:11:18;101906.02;;;12.48;55.15
24336;BME280;33098;52.400;16.880;2023-03-01T13:13:46;101905.02;;;12.66;55.09
24336;BME280;33098;52.400;16.880;2023-03-01T13:21:37;101888.11;;;12.69;52.92
24336;BME280;33098;52.400;16.880;2023-03-01T13:27:09;101875.25;;;12.62;53.43
24336;BME280;33098;52.400;16.880;2023-03-01T13:32:23;101871.84;;;12.59;53.98
24336;BME280;33098;52.400;16.880;2023-03-01T13:37:43;101867.09;;;12.38;53.62
24336;BME280;33098;52.400;16.880;2023-03-01T13:42:53;101868.58;;;12.03;53.40
24336;BME280;33098;52.400;16.880;2023-03-01T13:48:15;101870.14;;;11.59;53.42
24336;BME280;33098;52.400;16.880;2023-03-01T13:50:47;101865.29;;;11.36;53.48
24336;BME280;33098;52.400;16.880;2023-03-01T13:53:20;101856.13;;;11.10;53.24
24336;BME280;33098;52.400;16.880;2023-03-01T13:55:52;101856.47;;;10.89;53.54
24336;BME280;33098;52.400;16.880;2023-03-01T13:58:44;101851.89;;;10.79;53.65
24336;BME280;33098;52.400;16.880;2023-03-01T14:03:53;101857.69;;;10.55;53.83
24336;BME280;33098;52.400;16.880;2023-03-01T14:06:30;101861.92;;;10.36;53.63
24336;BME280;33098;52.400;16.880;2023-03-01T14:09:20;101851.01;;;10.17;53.79
24336;BME280;33098;52.400;16.880;2023-03-01T14:20:24;101849.80;;;9.53;53.99
24336;BME280;33098;52.400;16.880;2023-03-01T14:22:54;101848.96;;;9.42;54.03
24336;BME280;33098;52.400;16.880;2023-03-01T14:25:29;101852.45;;;9.15;53.51
24336;BME280;33098;52.400;16.880;2023-03-01T14:28:03;101850.29;;;8.97;54.00
24336;BME280;33098;52.400;16.880;2023-03-01T14:30:37;101851.41;;;8.96;54.44
24336;BME280;33098;52.400;16.880;2023-03-01T14:33:23;101845.68;;;8.97;54.64
24336;BME280;33098;52.400;16.880;2023-03-01T14:35:58;101847.68;;;8.96;54.58
24336;BME280;33098;52.400;16.880;2023-03-01T14:38:36;101840.86;;;8.91;54.69
24336;BME280;33098;52.400;16.880;2023-03-01T14:41:10;101837.45;;;8.81;54.52
24336;BME280;33098;52.400;16.880;2023-03-01T14:43:56;101836.83;;;8.72;54.70
24336;BME280;33098;52.400;16.880;2023-03-01T14:46:34;101832.81;;;8.63;54.69
24336;BME280;33098;52.400;16.880;2023-03-01T14:49:11;101831.79;;;8.55;54.80
24336;BME280;33098;52.400;16.880;2023-03-01T14:51:41;101833.39;;;8.51;54.96
24336;BME280;33098;52.400;16.880;2023-03-01T14:54:25;101835.17;;;8.51;55.11
24336;BME280;33098;52.400;16.880;2023-03-01T14:57:00;101837.75;;;8.53;55.12
24336;BME280;33098;52.400;16.880;2023-03-01T14:59:30;101830.77;;;8.39;55.13
24336;BME280;33098;52.400;16.880;2023-03-01T15:02:00;101827.70;;;8.25;55.20
24336;BME280;33098;52.400;16.880;2023-03-01T15:04:41;101827.52;;;8.21;55.57
24336;BME280;33098;52.400;16.880;2023-03-01T15:07:14;101827.05;;;8.27;55.75
24336;BME280;33098;52.400;16.880;2023-03-01T15:09:44;101829.72;;;8.27;55.82